LFBDLFBO

Guest
Details From LFBD - Bordeaux Merignac
To LFBO - Toulouse Blagnac
Flight Number -
Tags generated
Created
Modified
Stats Distance 115 nm / 213 km
Max Altitude 5,600 ft / 1,707 m
Waypoints 3
Social Downloads 0
Likes 0
Share VATSIM

Download

Looking for another format? Having issues loading an existing format? Contact us
Advertisement - Login to hide

Notes

Basic altitude profile: - Ascent Rate: 2500ft/min - Ascent Speed: 250kts - Cruise Altitude: 19000ft - Cruise Speed: 420kts - Descent Rate: 1500ft/min - Descent Speed: 250kts Options: - Use NATs: yes - Use PACOTS: yes - Use low airways: yes - Use high airways: yes

Route

LFBD AGN LFBO

ID Type Via Altitude (ft/m) Position (lat/lon) Dist (leg/tot) Name
O LFBD APT - 0 / 0 44.82876 / -0.71476 - / 0 nm Bordeaux Merignac
AGN VOR - 5,600 / 1,707 43.88803 / 0.87286 88 / 88 nm AGEN-Gaudonville VOR-DME
O LFBO APT - 0 / 0 43.62903 / 1.36397 26 / 114 nm Toulouse Blagnac

Altitude Profile

Advertisement - Login to hide

LFBD

Details ICAO LFBD (BOD)
Name Bordeaux Merignac
Region France
Timezone Europe/Paris (UTC+2.0)
Stats Elevation 166 ft / 51 m (AMSL)
Location 44.828800° -0.714756°
Runways 2
Magnetic Variation 0.032° E

METAR

LFBD 250530Z AUTO 03008KT CAVOK 10/05 Q1029 NOSIG

Decode

TAF

TAF LFBD 242300Z 2500/2606 03008KT CAVOK TX22/2515Z TN09/2506Z= TAF LFBO 242300Z 2500/2606 30005KT CAVOK BECMG 2602/2604 14012KT

Decode

Departure Runways

ID Width Length Bearing (true/mag) Surface Threshold Overrun Markings Lighting
05 148 ft / 45 m 10,164 ft / 3,098 m 45.48° / 45.45° ASPHALT 26 ft / 8 m 1,145 ft / 349 m APP CENTERLINE EDGE THRESHOLD REIL-UNI
11 148 ft / 45 m 7,931 ft / 2,417 m 106.45° / 106.42° ASPHALT 26 ft / 8 m 1,198 ft / 365 m APP EDGE THRESHOLD REIL-UNI
23 148 ft / 45 m 10,164 ft / 3,098 m 225.50° / 225.47° ASPHALT 39 ft / 12 m 1,266 ft / 386 m APP CENTERLINE EDGE THRESHOLD CALVERT TDZ REIL-UNI
29 148 ft / 45 m 7,931 ft / 2,417 m 286.47° / 286.44° ASPHALT 33 ft / 10 m 1,201 ft / 366 m PREC-APP EDGE THRESHOLD REIL-UNI

LFBO

Details ICAO LFBO (TLS)
Name Toulouse Blagnac
Region France
Timezone Europe/Paris (UTC+2.0)
Stats Elevation 499 ft / 152 m (AMSL)
Location 43.629000° 1.363970°
Runways 2
Magnetic Variation 0.668° E

METAR

LFBO 250530Z AUTO 32005KT CAVOK 09/05 Q1027 NOSIG

Decode

TAF

TAF LFBO 242300Z 2500/2606 30005KT CAVOK BECMG 2602/2604 14012KT

Decode

Destination Runways

ID Width Length Bearing (true/mag) Surface Threshold Overrun Markings Lighting
14L 148 ft / 45 m 9,923 ft / 3,025 m 143.00° / 142.33° ASPHALT 0 ft / 0 m 30 ft / 9 m PREC-APP CENTERLINE EDGE THRESHOLD ALSF-I REIL-OMNI
14R 148 ft / 45 m 11,484 ft / 3,500 m 142.99° / 142.32° ASPHALT 0 ft / 0 m 295 ft / 90 m PREC-APP CENTERLINE EDGE THRESHOLD ALSF-II TDZ REIL-OMNI
32L 148 ft / 45 m 11,484 ft / 3,500 m 323.01° / 322.34° ASPHALT 0 ft / 0 m 194 ft / 59 m PREC-APP CENTERLINE EDGE THRESHOLD REIL-OMNI
32R 148 ft / 45 m 9,923 ft / 3,025 m 323.02° / 322.35° ASPHALT 0 ft / 0 m 0 ft / 0 m PREC-APP CENTERLINE EDGE THRESHOLD REIL-OMNI

Approach Navaids

Runway Type Ident Frequency Range Bearing (true/mag) Slope Elevation
14L GS TG 108.90 MHz 10 nm / 19 km 143.02° / 142.35 ° 3.00° 494 ft / 151 m (AMSL)
14L LOC-ILS TG 108.90 MHz 18 nm / 33 km 143.02° / 142.35 ° - 494 ft / 151 m (AMSL)
14L DME TG 108.90 MHz 18 nm / 33 km - - 528 ft / 161 m (AMSL)
14R LOC-ILS TBS 110.70 MHz 18 nm / 33 km 143.01° / 142.34 ° - 497 ft / 151 m (AMSL)
14R GS TBS 110.70 MHz 10 nm / 19 km 143.00° / 142.33 ° 3.00° 497 ft / 151 m (AMSL)
14R DME TBS 110.70 MHz 18 nm / 33 km - - 538 ft / 164 m (AMSL)
32L LOC-ILS TBN 109.30 MHz 18 nm / 33 km 322.99° / 322.32 ° - 487 ft / 148 m (AMSL)
32L DME TBN 109.30 MHz 18 nm / 33 km - - 535 ft / 163 m (AMSL)
32L GS TBN 109.30 MHz 10 nm / 19 km 323.00° / 322.33 ° 3.00° 487 ft / 148 m (AMSL)
32L OM OM - - 323.16° / 322.49 ° - 420 ft / 128 m (AMSL)
32R GS TD 108.35 MHz 10 nm / 19 km 323.02° / 322.35 ° 3.50° 486 ft / 148 m (AMSL)
32R LOC-ILS TD 108.35 MHz 18 nm / 33 km 322.70° / 322.03 ° - 486 ft / 148 m (AMSL)
32R DME TD 108.35 MHz 18 nm / 33 km - - 554 ft / 169 m (AMSL)
32R OM OM - - 322.15° / 321.48 ° - 472 ft / 144 m (AMSL)

Popular Alternatives